Time;durP1;ratioP1;P1;durP2;ratioP2;P2;SDS_P1;SDS_P2;PMS_P1;PMS_P2;Temp;Humidity;BMP_temperature;BMP_pressure;BME280_temperature;BME280_humidity;BME280_pressure;Samples;Min_cycle;Max_cycle;Signal;HPM_P1;HPM_P2
2022/01/20 00:00:04;;;;;;;1588.67;215.30;;;4.50;99.90;;;;;;6226649;23;20386;-79
2022/01/20 00:02:37;;;;;;;1559.37;195.70;;;4.50;99.90;;;;;;6237035;23;20716;-79
2022/01/20 00:05:37;;;;;;;1512.43;222.90;;;4.50;99.90;;;;;;6237054;23;20401;-80
2022/01/20 00:08:18;;;;;;;1381.83;180.63;;;4.50;99.90;;;;;;6237691;23;20392;-79
2022/01/20 00:27:28;;;;;;;1999.90;610.70;;;4.30;99.90;;;;;;6237150;23;20463;-79
2022/01/20 00:30:29;;;;;;;1999.90;508.40;;;4.20;99.90;;;;;;6225583;23;20395;-79
2022/01/20 00:33:13;;;;;;;1999.90;495.83;;;4.20;99.90;;;;;;6225153;23;20417;-79
2022/01/20 00:37:26;;;;;;;1999.90;847.27;;;4.20;99.90;;;;;;6100596;23;20454;-79
2022/01/20 00:49:56;;;;;;;1999.90;999.90;;;4.10;99.90;;;;;;5762360;24;20423;-79
2022/01/20 00:53:54;;;;;;;;;;;;;;;;;;;;;
2022/01/20 01:15:35;;;;;;;1999.90;999.90;;;3.90;99.90;;;;;;5973763;23;20432;-79
2022/01/20 01:21:14;;;;;;;1999.90;999.90;;;3.90;99.90;;;;;;6208689;23;20415;-79
2022/01/20 01:23:45;;;;;;;1999.90;999.90;;;3.80;99.90;;;;;;6225049;23;20446;-79
2022/01/20 01:26:20;;;;;;;1999.90;999.90;;;3.80;99.90;;;;;;6224408;23;20450;-79
2022/01/20 01:28:48;;;;;;;1999.90;999.90;;;3.80;99.90;;;;;;6225104;23;20414;-79
2022/01/20 01:31:39;;;;;;;1999.90;999.90;;;3.90;99.90;;;;;;6225092;23;20782;-79
2022/01/20 01:34:10;;;;;;;1715.27;704.87;;;3.80;99.90;;;;;;6224266;23;20411;-79
2022/01/20 01:36:50;;;;;;;1999.90;999.90;;;3.90;99.90;;;;;;6223284;23;20446;-79
2022/01/20 01:39:28;;;;;;;1999.90;999.90;;;3.80;99.90;;;;;;6224240;23;20402;-79
2022/01/20 01:41:56;;;;;;;1999.90;999.90;;;3.90;99.90;;;;;;6224714;23;20416;-80
2022/01/20 01:44:28;;;;;;;1999.90;999.90;;;3.90;99.90;;;;;;6224247;23;20418;-80
2022/01/20 01:47:05;;;;;;;1999.90;999.90;;;3.90;99.90;;;;;;6224557;23;20496;-79
2022/01/20 01:49:33;;;;;;;1999.90;999.90;;;3.90;99.90;;;;;;6225135;23;20403;-79
2022/01/20 01:52:04;;;;;;;1999.90;999.90;;;3.90;99.90;;;;;;6224340;23;20453;-80
2022/01/20 01:54:32;;;;;;;1999.90;306.40;;;3.90;99.90;;;;;;6226597;23;20839;-79
2022/01/20 01:57:09;;;;;;;1819.30;731.03;;;4.00;99.90;;;;;;6228022;23;20443;-79
2022/01/20 02:17:59;;;;;;;1999.90;999.90;;;3.90;99.90;;;;;;5820066;24;20423;-79
2022/01/20 02:20:30;;;;;;;1999.90;808.23;;;3.80;99.90;;;;;;5942024;24;20423;-79
2022/01/20 02:23:02;;;;;;;1999.90;999.90;;;3.80;99.90;;;;;;6053617;23;20421;-79
2022/01/20 02:25:34;;;;;;;1999.90;828.60;;;3.80;99.90;;;;;;6110868;23;20433;-79
2022/01/20 02:28:05;;;;;;;1999.90;623.37;;;3.80;99.90;;;;;;6111138;23;20413;-80
2022/01/20 02:30:35;;;;;;;1999.90;630.50;;;3.80;99.90;;;;;;6110748;23;20417;-79
2022/01/20 02:33:07;;;;;;;1999.90;999.90;;;3.80;99.90;;;;;;6111227;23;20437;-80
2022/01/20 02:35:39;;;;;;;1999.90;649.53;;;3.80;99.90;;;;;;6110140;23;20491;-81
2022/01/20 02:38:18;;;;;;;1999.90;736.33;;;3.80;99.90;;;;;;6110368;23;20428;-80
2022/01/20 02:46:18;;;;;;;1999.90;999.90;;;3.80;99.90;;;;;;6224975;23;20473;-80
2022/01/20 02:48:46;;;;;;;1999.90;999.90;;;3.80;99.90;;;;;;6225603;23;20447;-79
2022/01/20 02:51:16;;;;;;;1999.90;453.47;;;3.80;99.90;;;;;;6224836;23;20474;-79
2022/01/20 02:53:46;;;;;;;1999.90;999.90;;;3.80;99.90;;;;;;6225495;23;20452;-79
2022/01/20 02:56:15;;;;;;;1999.90;999.90;;;3.80;99.90;;;;;;6225070;23;20448;-80
2022/01/20 02:58:43;;;;;;;1999.90;999.90;;;3.80;99.90;;;;;;6225141;23;20422;-79
2022/01/20 03:01:11;;;;;;;1999.90;999.90;;;3.70;99.90;;;;;;6225801;23;20428;-79
2022/01/20 03:03:40;;;;;;;1999.90;777.83;;;3.70;99.90;;;;;;6225005;23;20972;-79
2022/01/20 03:06:08;;;;;;;1999.90;999.90;;;3.70;99.90;;;;;;6224920;23;20452;-80
2022/01/20 03:08:41;;;;;;;1999.90;570.43;;;3.70;99.90;;;;;;6226529;23;20441;-79
2022/01/20 03:11:17;;;;;;;1999.90;999.90;;;3.60;99.90;;;;;;6223365;23;20807;-80
2022/01/20 03:13:45;;;;;;;1989.67;737.57;;;3.60;99.90;;;;;;6224745;23;20469;-79
2022/01/20 03:16:14;;;;;;;1999.90;999.90;;;3.60;99.90;;;;;;6224880;23;20492;-80
2022/01/20 03:18:43;;;;;;;1816.27;499.17;;;3.60;99.90;;;;;;6237132;23;20399;-79
2022/01/20 03:31:42;;;;;;;1999.90;999.90;;;3.40;99.90;;;;;;5949762;23;20899;-80
2022/01/20 03:34:12;;;;;;;1999.90;999.90;;;3.30;99.90;;;;;;6192833;23;20422;-80
2022/01/20 03:36:46;;;;;;;1999.90;999.90;;;3.30;99.90;;;;;;6224855;23;20478;-79
2022/01/20 03:39:18;;;;;;;1999.90;999.90;;;3.30;99.90;;;;;;6225008;23;20789;-79
2022/01/20 03:41:47;;;;;;;1999.90;999.90;;;3.30;99.90;;;;;;6224979;23;20415;-79
2022/01/20 03:44:21;;;;;;;1999.90;999.90;;;3.30;99.90;;;;;;6225370;23;20460;-79
2022/01/20 03:46:52;;;;;;;1999.90;999.90;;;3.30;99.90;;;;;;6226050;23;20434;-79
2022/01/20 03:49:32;;;;;;;1999.90;999.90;;;3.20;99.90;;;;;;6225480;23;20973;-79
2022/01/20 04:00:22;;;;;;;1269.87;109.67;;;3.20;99.90;;;;;;5846598;23;20427;-80
2022/01/20 04:03:15;;;;;;;1222.13;124.23;;;3.20;99.90;;;;;;6063875;23;20492;-80
2022/01/20 04:05:57;;;;;;;1039.80;132.27;;;3.10;99.90;;;;;;6061899;23;20449;-79
2022/01/20 04:08:35;;;;;;;788.47;120.93;;;3.10;99.90;;;;;;6062959;23;20439;-79
2022/01/20 04:11:06;;;;;;;983.73;98.10;;;3.10;99.90;;;;;;6062944;23;20421;-79
2022/01/20 04:13:36;;;;;;;1519.13;678.00;;;3.10;99.90;;;;;;6061988;23;20455;-79
2022/01/20 04:16:14;;;;;;;1999.90;999.90;;;3.00;99.90;;;;;;6051747;23;20519;-79
2022/01/20 04:18:52;;;;;;;1276.10;435.17;;;3.00;99.90;;;;;;6177352;23;20960;-79
2022/01/20 04:28:48;;;;;;;;;;;;;;;;;;;;;
2022/01/20 04:42:06;;;;;;;1999.90;238.47;;;2.80;99.90;;;;;;5965677;23;20396;-79
2022/01/20 04:44:41;;;;;;;1999.90;263.40;;;2.70;99.90;;;;;;6138990;23;20418;-79
2022/01/20 04:47:30;;;;;;;1999.90;238.97;;;2.60;99.90;;;;;;6138365;23;20437;-80
2022/01/20 04:58:20;;;;;;;1898.40;155.40;;;2.40;99.90;;;;;;6139736;23;20428;-79
2022/01/20 05:00:52;;;;;;;1999.90;269.60;;;2.40;99.90;;;;;;6193394;23;20415;-79
2022/01/20 05:03:39;;;;;;;1999.90;250.00;;;2.50;99.90;;;;;;6236694;23;20454;-80
2022/01/20 05:06:40;;;;;;;783.93;104.63;;;2.50;99.90;;;;;;6224551;23;20444;-79
2022/01/20 05:09:10;;;;;;;461.80;54.60;;;2.40;99.90;;;;;;6225643;23;20402;-80
2022/01/20 05:11:43;;;;;;;1999.90;308.73;;;2.40;99.90;;;;;;6236766;23;20945;-79
2022/01/20 05:14:21;;;;;;;635.67;100.47;;;2.40;99.90;;;;;;6224562;23;20925;-79
2022/01/20 05:16:51;;;;;;;1343.93;64.17;;;2.40;99.90;;;;;;6224925;23;20496;-79
2022/01/20 05:19:21;;;;;;;1807.40;155.23;;;2.40;99.90;;;;;;6225251;23;20430;-79
2022/01/20 05:21:49;;;;;;;828.23;105.67;;;2.40;99.90;;;;;;6224836;23;20402;-79
2022/01/20 05:41:39;;;;;;;1527.00;199.67;;;2.40;99.90;;;;;;5943315;23;20447;-79
2022/01/20 05:44:23;;;;;;;1999.90;264.57;;;2.40;99.90;;;;;;5997351;23;20418;-79
2022/01/20 05:46:54;;;;;;;1999.90;263.97;;;2.40;99.90;;;;;;5997275;23;20444;-79
2022/01/20 05:49:54;;;;;;;1475.63;132.07;;;2.40;99.90;;;;;;6177306;23;20403;-79
2022/01/20 05:52:22;;;;;;;1999.90;237.90;;;2.40;99.90;;;;;;6168230;23;20468;-78
2022/01/20 05:54:51;;;;;;;1999.90;306.43;;;2.40;99.90;;;;;;6168924;23;20495;-78
2022/01/20 05:57:21;;;;;;;1999.90;313.07;;;2.40;99.90;;;;;;6168863;23;20443;-80
2022/01/20 05:59:53;;;;;;;1999.90;378.10;;;2.40;99.90;;;;;;6169938;23;20510;-79
2022/01/20 06:02:35;;;;;;;1582.87;124.10;;;2.40;99.90;;;;;;6168829;23;20412;-79
2022/01/20 06:05:20;;;;;;;786.17;87.57;;;2.40;99.90;;;;;;6174176;23;20412;-80
2022/01/20 06:07:50;;;;;;;648.40;105.43;;;2.40;99.90;;;;;;6225902;23;20423;-79
2022/01/20 06:10:18;;;;;;;1999.90;265.60;;;2.40;99.90;;;;;;6223128;23;20443;-79
2022/01/20 06:12:48;;;;;;;543.57;87.70;;;2.40;99.90;;;;;;6224359;23;20426;-80
2022/01/20 06:15:17;;;;;;;1999.90;275.37;;;2.40;99.90;;;;;;6225290;23;20404;-79
2022/01/20 06:17:45;;;;;;;1999.90;176.10;;;2.40;99.90;;;;;;6225856;23;20447;-79
2022/01/20 06:20:19;;;;;;;1670.13;95.47;;;2.40;99.90;;;;;;6224917;23;20421;-80
2022/01/20 06:22:49;;;;;;;1959.10;158.27;;;2.40;99.90;;;;;;6224010;23;20423;-81
2022/01/20 06:25:19;;;;;;;1999.90;362.60;;;2.30;99.90;;;;;;6225328;23;20410;-80
2022/01/20 06:27:50;;;;;;;1999.90;225.23;;;2.40;99.90;;;;;;6224897;23;20416;-79
2022/01/20 06:30:22;;;;;;;1999.90;221.97;;;2.40;99.90;;;;;;6224627;23;20802;-79
2022/01/20 06:32:50;;;;;;;1999.90;312.80;;;2.30;99.90;;;;;;6224831;23;20422;-79
2022/01/20 06:35:27;;;;;;;1999.90;299.63;;;2.30;99.90;;;;;;6226306;23;20433;-80
2022/01/20 06:37:55;;;;;;;525.00;78.30;;;2.30;99.90;;;;;;6224529;23;20498;-79
2022/01/20 06:40:25;;;;;;;637.27;112.20;;;2.30;99.90;;;;;;6225498;23;20491;-79
2022/01/20 06:42:55;;;;;;;1999.90;252.50;;;2.30;99.90;;;;;;6227582;23;20469;-79
2022/01/20 06:45:25;;;;;;;1999.90;236.57;;;2.20;99.90;;;;;;6225938;23;20419;-80
2022/01/20 06:48:06;;;;;;;1999.90;278.73;;;2.20;99.90;;;;;;6226451;23;20415;-79
2022/01/20 06:50:47;;;;;;;1885.93;280.63;;;2.30;99.90;;;;;;6225355;23;20419;-80
2022/01/20 07:02:21;;;;;;;956.47;140.83;;;2.20;99.90;;;;;;5964981;24;20445;-80
2022/01/20 07:04:51;;;;;;;1999.90;398.20;;;2.20;99.90;;;;;;6134577;23;20437;-79
2022/01/20 07:07:23;;;;;;;1999.90;313.17;;;2.20;99.90;;;;;;6144989;23;20426;-79
2022/01/20 07:10:26;;;;;;;1999.90;320.47;;;2.20;99.90;;;;;;6129368;23;20430;-80
2022/01/20 07:12:56;;;;;;;1999.90;396.43;;;2.20;99.90;;;;;;6109959;23;20449;-79
2022/01/20 07:15:27;;;;;;;1686.47;232.03;;;2.20;99.90;;;;;;6109358;23;20458;-79
2022/01/20 07:17:58;;;;;;;865.30;105.23;;;2.20;99.90;;;;;;6110370;23;20496;-82
2022/01/20 07:20:31;;;;;;;1999.90;414.07;;;2.20;99.90;;;;;;6110038;23;20487;-79
2022/01/20 07:23:24;;;;;;;305.17;27.13;;;2.20;99.90;;;;;;6123189;23;20402;-80
2022/01/20 07:26:01;;;;;;;1424.47;228.63;;;2.20;99.90;;;;;;6110024;23;20449;-79
2022/01/20 07:28:29;;;;;;;1999.90;315.93;;;2.20;99.90;;;;;;6165232;23;20416;-79
2022/01/20 07:31:02;;;;;;;1999.90;383.80;;;2.20;99.90;;;;;;6224597;23;20723;-80
2022/01/20 07:33:37;;;;;;;1792.90;275.10;;;2.20;99.90;;;;;;6224192;23;20431;-79
2022/01/20 07:36:06;;;;;;;1999.90;364.93;;;2.20;99.90;;;;;;6224898;23;20435;-79
2022/01/20 07:38:36;;;;;;;1999.90;383.20;;;2.20;99.90;;;;;;6224467;23;20793;-79
2022/01/20 07:41:17;;;;;;;;;;;;;;;;;;;;;
2022/01/20 07:44:21;;;;;;;1622.47;256.20;;;2.20;99.90;;;;;;6224754;23;20411;-79
2022/01/20 07:55:11;;;;;;;1247.17;229.23;;;2.30;99.90;;;;;;5919932;23;20460;-79
2022/01/20 07:57:42;;;;;;;611.57;62.17;;;2.20;99.90;;;;;;5990624;23;20430;-79
2022/01/20 08:00:11;;;;;;;1999.90;349.60;;;2.20;99.90;;;;;;6079980;23;20428;-80
2022/01/20 08:02:46;;;;;;;1630.37;156.37;;;2.20;99.90;;;;;;6113593;23;20437;-79
2022/01/20 08:05:30;;;;;;;1999.90;338.03;;;2.20;99.90;;;;;;6081487;23;20438;-80
2022/01/20 08:07:58;;;;;;;1595.13;212.13;;;2.20;99.90;;;;;;6081257;23;20414;-79
2022/01/20 08:10:28;;;;;;;1999.90;291.70;;;2.30;99.90;;;;;;6213580;23;20419;-79
2022/01/20 08:12:57;;;;;;;972.47;136.07;;;2.30;99.90;;;;;;6223932;23;20458;-79
2022/01/20 08:15:30;;;;;;;1999.90;360.37;;;2.30;99.90;;;;;;6224621;23;20469;-79
2022/01/20 08:22:04;;;;;;;879.70;114.00;;;2.30;99.90;;;;;;6201731;23;20806;-79
2022/01/20 08:25:26;;;;;;;421.30;41.60;;;2.30;99.90;;;;;;6105595;23;20514;-79
2022/01/20 08:40:13;;;;;;;228.80;21.97;;;2.50;99.90;;;;;;5852307;24;20426;-79
2022/01/20 08:43:20;;;;;;;1999.90;279.63;;;2.50;99.90;;;;;;6021590;23;20418;-79
2022/01/20 08:45:52;;;;;;;1999.90;349.00;;;2.50;99.90;;;;;;6078803;23;20445;-79
2022/01/20 09:06:57;;;;;;;1877.90;145.33;;;2.20;99.90;;;;;;5971466;23;20440;-79
2022/01/20 09:09:39;;;;;;;1829.93;173.10;;;2.20;99.90;;;;;;6045037;23;20426;-79
2022/01/20 09:12:18;;;;;;;1253.37;99.93;;;2.20;99.90;;;;;;6097971;23;20485;-79
2022/01/20 09:17:39;;;;;;;541.17;26.10;;;2.20;99.90;;;;;;6070926;23;20418;-79
2022/01/20 09:20:09;;;;;;;648.37;48.80;;;2.20;99.90;;;;;;6077695;23;20910;-79
2022/01/20 09:22:38;;;;;;;1284.70;101.20;;;2.20;99.90;;;;;;6078069;23;20501;-79
2022/01/20 09:25:10;;;;;;;1341.93;91.90;;;2.20;99.90;;;;;;6077592;23;20415;-79
2022/01/20 09:27:45;;;;;;;551.60;86.03;;;2.20;99.90;;;;;;6077170;23;20426;-79
2022/01/20 09:30:18;;;;;;;1522.73;103.93;;;2.20;99.90;;;;;;6077360;23;20421;-79
2022/01/20 09:32:57;;;;;;;1212.40;179.47;;;2.20;99.90;;;;;;6078034;23;20478;-79
2022/01/20 09:35:30;;;;;;;1691.27;153.20;;;2.30;99.90;;;;;;6078810;23;20953;-78
2022/01/20 09:38:01;;;;;;;658.07;43.30;;;2.30;99.90;;;;;;6222087;23;20446;-79
2022/01/20 09:40:31;;;;;;;1669.80;129.63;;;2.40;99.90;;;;;;6221924;23;20480;-79
2022/01/20 09:43:05;;;;;;;1999.90;161.17;;;2.40;99.90;;;;;;6220869;23;20974;-78
2022/01/20 09:45:36;;;;;;;1141.60;112.73;;;2.50;99.90;;;;;;6221359;23;20426;-79
2022/01/20 09:48:05;;;;;;;1999.90;703.87;;;2.50;99.90;;;;;;6222007;23;20720;-82
2022/01/20 09:50:48;;;;;;;1480.10;105.23;;;2.60;99.90;;;;;;6234061;23;20386;-79
2022/01/20 09:53:37;;;;;;;1999.90;225.23;;;2.60;99.90;;;;;;6229088;23;20397;-78
2022/01/20 09:56:20;;;;;;;1999.90;278.43;;;2.60;99.90;;;;;;6227149;23;20481;-79
2022/01/20 09:58:49;;;;;;;1679.23;108.33;;;2.70;99.90;;;;;;6227641;23;20437;-79
2022/01/20 10:01:35;;;;;;;1999.90;151.67;;;2.70;99.90;;;;;;6222698;23;20786;-78
2022/01/20 10:04:04;;;;;;;1999.90;282.30;;;2.80;99.90;;;;;;6221510;23;20418;-79
2022/01/20 10:06:58;;;;;;;1799.43;120.90;;;2.80;99.90;;;;;;6221779;23;20434;-79
2022/01/20 10:09:41;;;;;;;1999.90;174.00;;;2.80;99.90;;;;;;6221459;23;20446;-80
2022/01/20 10:12:35;;;;;;;872.10;121.33;;;2.80;99.90;;;;;;6189757;23;20409;-79
2022/01/20 10:15:29;;;;;;;1760.83;119.87;;;2.80;99.90;;;;;;6210818;23;20474;-79
2022/01/20 10:18:32;;;;;;;1309.43;76.53;;;2.80;99.90;;;;;;6224355;23;20407;-79
2022/01/20 10:21:07;;;;;;;1590.73;111.93;;;2.90;99.90;;;;;;6223718;23;20421;-79
2022/01/20 10:23:45;;;;;;;1999.90;999.90;;;2.90;99.90;;;;;;6223884;23;20408;-79
2022/01/20 10:26:38;;;;;;;1999.90;464.67;;;2.90;99.90;;;;;;6223548;23;20436;-79
2022/01/20 10:29:10;;;;;;;1999.90;236.17;;;2.90;99.90;;;;;;6223414;23;20417;-79
2022/01/20 10:31:40;;;;;;;1999.90;452.63;;;3.00;99.90;;;;;;6223371;23;20472;-79
2022/01/20 10:34:28;;;;;;;1999.90;309.97;;;3.00;99.90;;;;;;6223436;23;20788;-79
2022/01/20 10:37:06;;;;;;;1999.90;552.60;;;3.10;99.90;;;;;;6222980;23;20442;-79
2022/01/20 10:39:43;;;;;;;1999.90;261.13;;;3.20;99.90;;;;;;6223782;23;20408;-79
2022/01/20 10:42:14;;;;;;;1999.90;306.47;;;3.30;99.90;;;;;;6224112;23;20530;-79
2022/01/20 10:44:46;;;;;;;1913.07;344.23;;;3.30;99.90;;;;;;6223291;23;20411;-79
2022/01/20 10:47:27;;;;;;;1350.00;224.97;;;3.50;99.90;;;;;;6222563;23;20458;-79
2022/01/20 10:50:11;;;;;;;945.57;119.53;;;3.50;99.90;;;;;;6222817;23;20449;-79
2022/01/20 10:52:46;;;;;;;832.47;111.23;;;3.60;99.90;;;;;;6224970;23;20416;-80
2022/01/20 10:55:22;;;;;;;959.07;115.20;;;3.70;99.90;;;;;;6225271;23;20459;-79
2022/01/20 10:58:11;;;;;;;1827.00;239.63;;;3.80;99.90;;;;;;6222747;23;20413;-78
2022/01/20 11:00:42;;;;;;;1317.83;138.20;;;3.90;99.90;;;;;;6223268;23;20412;-79
2022/01/20 11:03:13;;;;;;;1651.57;204.37;;;3.90;99.90;;;;;;6224152;23;20481;-79
2022/01/20 11:05:44;;;;;;;1043.20;118.30;;;4.00;99.90;;;;;;6223799;23;20448;-79
2022/01/20 11:08:18;;;;;;;1256.13;162.50;;;4.00;99.90;;;;;;6223719;23;20436;-79
2022/01/20 11:11:38;;;;;;;952.27;123.27;;;4.10;99.90;;;;;;6193254;23;20504;-79
2022/01/20 11:14:53;;;;;;;463.03;63.27;;;4.10;99.90;;;;;;6218782;23;20778;-78
2022/01/20 11:17:22;;;;;;;1865.43;288.23;;;4.10;99.90;;;;;;6223090;23;20440;-79
2022/01/20 11:19:53;;;;;;;1174.43;155.23;;;4.10;99.90;;;;;;6224292;23;20449;-80
2022/01/20 11:22:21;;;;;;;1152.77;148.70;;;4.10;99.90;;;;;;6223847;23;20798;-79
2022/01/20 11:25:10;;;;;;;1140.30;188.83;;;4.10;99.90;;;;;;6225378;23;20489;-80
2022/01/20 11:28:03;;;;;;;813.93;112.77;;;4.00;99.90;;;;;;6224799;23;20410;-79
2022/01/20 11:30:42;;;;;;;1172.10;182.10;;;4.00;99.90;;;;;;6222923;23;20502;-79
2022/01/20 11:33:26;;;;;;;676.57;68.73;;;4.10;99.90;;;;;;6224062;23;20481;-80
2022/01/20 11:35:56;;;;;;;1431.13;186.87;;;4.10;99.90;;;;;;6223616;23;20452;-79
2022/01/20 11:38:38;;;;;;;532.93;43.70;;;4.10;99.90;;;;;;6247284;23;20418;-78
2022/01/20 11:41:08;;;;;;;1030.57;123.00;;;4.10;99.90;;;;;;6220841;23;20434;-79
2022/01/20 11:43:42;;;;;;;1384.70;182.30;;;4.10;99.90;;;;;;6225254;23;20426;-79
2022/01/20 11:46:16;;;;;;;1323.77;239.03;;;4.10;99.90;;;;;;6223090;23;20437;-78
2022/01/20 11:48:58;;;;;;;829.37;72.53;;;4.10;99.90;;;;;;6224479;23;20401;-79
2022/01/20 11:51:28;;;;;;;754.17;72.57;;;4.10;99.90;;;;;;6222530;23;20408;-79
2022/01/20 11:54:28;;;;;;;793.77;73.80;;;4.10;99.90;;;;;;6223093;23;20399;-79
2022/01/20 11:58:48;;;;;;;;;;;;;;;;;;;;;
2022/01/20 12:04:34;;;;;;;810.07;78.87;;;4.10;99.90;;;;;;5840909;23;20418;-79
2022/01/20 12:07:04;;;;;;;575.43;62.10;;;4.20;99.90;;;;;;6044345;23;21007;-79
2022/01/20 12:09:35;;;;;;;1277.63;166.20;;;4.20;99.90;;;;;;6045309;23;20447;-79
2022/01/20 12:12:07;;;;;;;989.27;116.90;;;4.20;99.90;;;;;;6054521;23;20423;-79
2022/01/20 12:14:38;;;;;;;676.70;38.37;;;4.20;99.90;;;;;;6103095;23;20430;-79
2022/01/20 12:17:14;;;;;;;1364.67;161.43;;;4.30;99.90;;;;;;6106617;23;20471;-79
2022/01/20 12:23:52;;;;;;;738.23;83.90;;;4.30;99.90;;;;;;6003255;23;20413;-79
2022/01/20 12:38:47;;;;;;;1999.90;625.07;;;3.80;99.90;;;;;;5869885;24;20444;-78
2022/01/20 12:41:18;;;;;;;1999.90;456.73;;;3.70;99.90;;;;;;6001005;23;20494;-78
2022/01/20 12:43:48;;;;;;;1999.90;298.83;;;3.70;99.90;;;;;;6048777;23;20451;-79
2022/01/20 12:46:18;;;;;;;1999.90;267.57;;;3.80;99.90;;;;;;6092464;23;20469;-79
2022/01/20 12:48:59;;;;;;;1999.90;999.90;;;3.80;99.90;;;;;;6221536;23;20420;-79
2022/01/20 12:51:38;;;;;;;1999.90;466.43;;;3.80;99.90;;;;;;6222138;23;20418;-79
2022/01/20 12:54:11;;;;;;;1999.90;295.77;;;3.90;99.90;;;;;;6222626;23;20408;-79
2022/01/20 12:56:42;;;;;;;1999.90;474.60;;;3.80;99.90;;;;;;6232888;23;20436;-78
2022/01/20 12:59:20;;;;;;;1999.90;401.53;;;3.80;99.90;;;;;;6224020;23;20406;-78
2022/01/20 13:02:50;;;;;;;1999.90;393.80;;;3.80;99.90;;;;;;6141459;23;20503;-79
2022/01/20 13:05:19;;;;;;;1999.90;523.97;;;3.70;99.90;;;;;;6221172;23;20487;-79
2022/01/20 13:07:52;;;;;;;1999.90;288.07;;;3.70;99.90;;;;;;6221340;23;20927;-79
2022/01/20 13:10:33;;;;;;;1999.90;405.10;;;3.80;99.90;;;;;;6233573;23;20465;-79
2022/01/20 13:13:05;;;;;;;1999.90;415.77;;;3.80;99.90;;;;;;6221880;23;20420;-80
2022/01/20 13:15:34;;;;;;;1999.90;358.73;;;3.80;99.90;;;;;;6221650;23;20440;-79
2022/01/20 13:18:08;;;;;;;1991.53;187.33;;;3.70;99.90;;;;;;6233174;23;20410;-79
2022/01/20 13:20:41;;;;;;;1999.90;262.23;;;3.70;99.90;;;;;;6233402;23;20411;-79
2022/01/20 13:23:54;;;;;;;1999.90;281.23;;;3.60;99.90;;;;;;6221922;23;20420;-79
2022/01/20 13:26:06;;;;;;;1999.90;307.13;;;3.60;99.90;;;;;;6221756;23;20442;-79
2022/01/20 13:28:38;;;;;;;1999.90;212.77;;;3.50;99.90;;;;;;6233231;23;20412;-79
2022/01/20 13:46:23;;;;;;;1999.90;317.83;;;3.10;99.90;;;;;;5967900;23;20450;-79
2022/01/20 13:56:23;;;;;;;818.27;98.83;;;3.00;99.90;;;;;;6045082;23;20444;-78
2022/01/20 14:02:54;;;;;;;1459.93;114.63;;;2.90;99.90;;;;;;5934403;24;20760;-78
2022/01/20 14:05:35;;;;;;;1543.60;151.20;;;2.90;99.90;;;;;;6050232;23;20953;-79
2022/01/20 14:08:06;;;;;;;899.83;87.93;;;2.90;99.90;;;;;;6132291;23;20406;-79
2022/01/20 14:10:37;;;;;;;1406.37;119.53;;;2.70;99.90;;;;;;6143057;23;20394;-79
2022/01/20 14:13:06;;;;;;;926.70;91.17;;;2.70;99.90;;;;;;6132032;23;21104;-79
2022/01/20 14:15:34;;;;;;;892.13;124.93;;;2.70;99.90;;;;;;6141580;23;20480;-79
2022/01/20 14:18:06;;;;;;;1501.90;128.87;;;2.60;99.90;;;;;;6140924;23;20443;-78
2022/01/20 14:20:37;;;;;;;1051.00;118.33;;;2.60;99.90;;;;;;6105692;23;20420;-79
2022/01/20 14:23:07;;;;;;;1105.97;112.13;;;2.60;99.90;;;;;;6105913;23;20433;-79
2022/01/20 14:25:36;;;;;;;1781.40;180.10;;;2.60;99.90;;;;;;6213616;23;20451;-79
2022/01/20 14:28:04;;;;;;;1007.30;128.17;;;2.60;99.90;;;;;;6222412;23;20961;-78
2022/01/20 14:30:33;;;;;;;1017.70;154.60;;;2.60;99.90;;;;;;6223160;23;20498;-80
2022/01/20 14:33:01;;;;;;;1152.77;139.93;;;2.60;99.90;;;;;;6223735;23;20450;-79
2022/01/20 14:35:31;;;;;;;1253.27;201.40;;;2.60;99.90;;;;;;6222936;23;20463;-79
2022/01/20 14:38:20;;;;;;;1314.77;136.77;;;2.60;99.90;;;;;;6220823;23;20473;-80
2022/01/20 14:41:00;;;;;;;936.83;107.33;;;2.50;99.90;;;;;;6233349;23;20766;-80
2022/01/20 14:43:28;;;;;;;1253.90;149.63;;;2.50;99.90;;;;;;6222953;23;20410;-80
2022/01/20 14:45:56;;;;;;;303.73;37.83;;;2.50;99.90;;;;;;6223783;23;20461;-79
2022/01/20 14:48:24;;;;;;;832.90;90.10;;;2.50;99.90;;;;;;6224689;23;20419;-80
2022/01/20 14:50:54;;;;;;;1199.87;115.13;;;2.50;99.90;;;;;;6223254;23;20499;-80
2022/01/20 14:53:22;;;;;;;1118.17;107.43;;;2.50;99.90;;;;;;6235476;23;20737;-80
2022/01/20 14:55:50;;;;;;;1572.80;152.67;;;2.50;99.90;;;;;;6223740;23;20451;-80
2022/01/20 14:58:20;;;;;;;945.73;101.30;;;2.50;99.90;;;;;;6222909;23;20459;-80
2022/01/20 15:24:48;;;;;;;;;;;;;;;;;;;;;
2022/01/20 15:31:35;;;;;;;546.53;62.73;;;2.40;99.90;;;;;;5960362;23;20416;-80
2022/01/20 15:34:05;;;;;;;278.57;27.83;;;2.40;99.90;;;;;;6016912;23;20420;-80
2022/01/20 15:36:41;;;;;;;1999.90;398.77;;;2.40;99.90;;;;;;6050098;23;20472;-80
2022/01/20 15:39:11;;;;;;;1999.90;435.63;;;2.40;99.90;;;;;;6131703;23;20456;-80
2022/01/20 15:41:49;;;;;;;1999.90;262.80;;;2.40;99.90;;;;;;6132328;23;20437;-80
2022/01/20 16:04:05;;;;;;;1999.90;264.07;;;2.40;99.90;;;;;;6077429;23;20768;-80
2022/01/20 16:16:20;;;;;;;1559.80;217.13;;;2.40;99.90;;;;;;5872090;24;20453;-80
2022/01/20 16:18:56;;;;;;;1999.90;249.20;;;2.40;99.90;;;;;;6076373;23;20510;-80
2022/01/20 16:21:24;;;;;;;572.53;49.77;;;2.40;99.90;;;;;;6107820;23;20432;-80
2022/01/20 16:23:52;;;;;;;1999.90;253.73;;;2.40;99.90;;;;;;6107328;23;20423;-80
2022/01/20 16:26:20;;;;;;;1999.90;396.77;;;2.40;99.90;;;;;;6107154;23;20460;-80
2022/01/20 16:28:48;;;;;;;1999.90;227.67;;;2.40;99.90;;;;;;6132704;23;20414;-80
2022/01/20 16:31:16;;;;;;;1999.90;132.10;;;2.30;99.90;;;;;;6107538;23;20962;-80
2022/01/20 16:33:46;;;;;;;1999.90;154.03;;;2.40;99.90;;;;;;6108559;23;20506;-80
2022/01/20 16:36:14;;;;;;;1999.90;221.40;;;2.40;99.90;;;;;;6222500;23;20997;-80
2022/01/20 16:38:43;;;;;;;1613.90;92.30;;;2.40;99.90;;;;;;6222779;23;20459;-80
2022/01/20 16:41:12;;;;;;;1999.90;190.13;;;2.40;99.90;;;;;;6222673;23;20421;-80
2022/01/20 16:43:42;;;;;;;799.07;120.47;;;2.50;99.90;;;;;;6222976;23;20416;-80
2022/01/20 16:46:11;;;;;;;1999.90;195.40;;;2.40;99.90;;;;;;6222618;23;20435;-79
2022/01/20 16:48:41;;;;;;;1775.30;147.97;;;2.40;99.90;;;;;;6234220;23;20395;-81
2022/01/20 16:51:12;;;;;;;1635.30;96.57;;;2.50;99.90;;;;;;6224333;23;20928;-80
2022/01/20 16:53:42;;;;;;;1999.90;161.57;;;2.50;99.90;;;;;;6222693;23;20404;-80
2022/01/20 16:56:13;;;;;;;1100.63;50.37;;;2.50;99.90;;;;;;6224486;23;20473;-80
2022/01/20 16:58:41;;;;;;;1999.90;298.47;;;2.50;99.90;;;;;;6221970;23;20457;-80
2022/01/20 17:01:15;;;;;;;1999.90;337.53;;;2.50;99.90;;;;;;6221919;23;20408;-80
2022/01/20 17:14:57;;;;;;;1999.90;412.93;;;2.50;99.90;;;;;;5942101;24;20463;-80
2022/01/20 17:21:26;;;;;;;1609.83;214.53;;;2.60;99.90;;;;;;5985860;23;20917;-80
2022/01/20 17:23:54;;;;;;;1999.90;387.40;;;2.50;99.90;;;;;;6152727;23;20404;-80
2022/01/20 17:26:26;;;;;;;1999.90;431.07;;;2.50;99.90;;;;;;6164879;23;20439;-80
2022/01/20 17:29:35;;;;;;;323.63;53.53;;;2.50;99.90;;;;;;6014448;23;20421;-81
2022/01/20 17:32:04;;;;;;;1999.90;381.73;;;2.50;99.90;;;;;;5995960;23;20429;-80
2022/01/20 17:34:33;;;;;;;556.80;98.17;;;2.50;99.90;;;;;;6050174;23;20391;-81
2022/01/20 17:37:03;;;;;;;1999.90;363.73;;;2.50;99.90;;;;;;6052664;23;20848;-82
2022/01/20 17:39:31;;;;;;;1999.90;431.73;;;2.50;99.90;;;;;;6076616;23;20443;-81
2022/01/20 17:42:00;;;;;;;1999.90;504.40;;;2.50;99.90;;;;;;6086669;23;20433;-80
2022/01/20 17:44:29;;;;;;;1999.90;477.57;;;2.50;99.90;;;;;;6053761;23;20426;-80
2022/01/20 17:46:59;;;;;;;1999.90;414.77;;;2.50;99.90;;;;;;6182839;23;20445;-80
2022/01/20 17:49:27;;;;;;;1999.90;487.03;;;2.50;99.90;;;;;;6225189;23;20411;-81
2022/01/20 17:51:56;;;;;;;1999.90;571.73;;;2.50;99.90;;;;;;6226891;23;20404;-80
2022/01/20 17:54:26;;;;;;;1999.90;405.43;;;2.50;99.90;;;;;;6237417;23;20402;-80
2022/01/20 17:56:56;;;;;;;1999.90;425.27;;;2.50;99.90;;;;;;6225277;23;20431;-80
2022/01/20 17:59:24;;;;;;;1999.90;438.13;;;2.50;99.90;;;;;;6237307;23;20446;-80
2022/01/20 18:01:53;;;;;;;1999.90;494.57;;;2.50;99.90;;;;;;6225221;23;20411;-81
2022/01/20 18:04:21;;;;;;;1999.90;370.67;;;2.50;99.90;;;;;;6227188;23;20414;-80
2022/01/20 18:06:50;;;;;;;1999.90;365.67;;;2.50;99.90;;;;;;6224984;23;20439;-80
2022/01/20 18:09:27;;;;;;;1999.90;515.07;;;2.50;99.90;;;;;;6226989;23;20395;-80